createdAt,value
2023-01-25T00:00:09.163Z,30.27
2023-01-25T00:02:36.143Z,26.85
2023-01-25T00:05:03.857Z,24.63
2023-01-25T00:07:30.608Z,22.90
2023-01-25T00:09:57.411Z,25.30
2023-01-25T00:12:24.267Z,26.25
2023-01-25T00:14:51.292Z,19.90
2023-01-25T00:17:18.352Z,20.92
2023-01-25T00:19:45.315Z,21.92
2023-01-25T00:22:12.329Z,24.08
2023-01-25T00:24:39.238Z,20.90
2023-01-25T00:27:06.152Z,20.92
2023-01-25T00:29:32.956Z,20.45
2023-01-25T00:32:06.234Z,22.33
2023-01-25T00:34:50.288Z,21.35
2023-01-25T00:37:25.447Z,21.95
2023-01-25T00:39:53.193Z,26.88
2023-01-25T00:42:20.903Z,22.45
2023-01-25T00:44:48.720Z,19.85
2023-01-25T00:47:16.443Z,23.98
2023-01-25T00:49:44.802Z,19.10
2023-01-25T00:52:13.365Z,22.73
2023-01-25T00:54:40.925Z,21.48
2023-01-25T00:57:08.127Z,21.95
2023-01-25T00:59:36.030Z,20.38
2023-01-25T01:02:03.433Z,19.02
2023-01-25T01:04:31.232Z,21.17
2023-01-25T01:06:58.471Z,21.35
2023-01-25T01:09:25.326Z,20.63
2023-01-25T01:11:53.328Z,19.67
2023-01-25T01:14:22.167Z,19.00
2023-01-25T01:16:50.862Z,21.85
2023-01-25T01:19:19.143Z,21.02
2023-01-25T01:21:46.161Z,19.88
2023-01-25T01:24:13.183Z,21.85
2023-01-25T01:26:40.568Z,18.38
2023-01-25T01:29:07.521Z,20.25
2023-01-25T01:31:34.741Z,22.02
2023-01-25T01:34:17.180Z,18.13
2023-01-25T01:36:44.370Z,19.52
2023-01-25T01:39:11.280Z,20.27
2023-01-25T01:41:38.818Z,20.92
2023-01-25T01:44:06.766Z,18.58
2023-01-25T01:46:37.478Z,21.02
2023-01-25T01:49:22.407Z,22.50
2023-01-25T01:51:54.289Z,19.08
2023-01-25T01:54:37.536Z,19.35
2023-01-25T01:57:20.086Z,21.80
2023-01-25T01:59:53.939Z,18.80
2023-01-25T02:02:21.419Z,22.42
2023-01-25T02:04:49.930Z,20.48
2023-01-25T02:07:23.952Z,20.67
2023-01-25T02:09:51.706Z,21.95
2023-01-25T02:12:22.491Z,21.73
2023-01-25T02:14:54.098Z,22.75
2023-01-25T02:17:26.793Z,24.38
2023-01-25T02:20:14.653Z,25.23
2023-01-25T02:23:06.491Z,21.17
2023-01-25T02:25:34.780Z,25.10
2023-01-25T02:28:16.700Z,23.13
2023-01-25T02:30:45.067Z,21.95
2023-01-25T02:33:12.014Z,21.58
2023-01-25T02:35:48.514Z,23.60
2023-01-25T02:38:19.266Z,24.38
2023-01-25T02:40:55.834Z,21.90
2023-01-25T02:43:27.599Z,20.52
2023-01-25T02:46:00.362Z,21.55
2023-01-25T02:48:27.454Z,20.77
2023-01-25T02:50:54.209Z,20.20
2023-01-25T02:53:21.023Z,21.88
2023-01-25T02:55:47.944Z,26.27
2023-01-25T02:58:14.791Z,21.65
2023-01-25T03:00:41.815Z,20.23
2023-01-25T03:03:08.792Z,21.70
2023-01-25T03:05:35.551Z,20.38
2023-01-25T03:08:02.416Z,21.83
2023-01-25T03:10:29.221Z,20.25
2023-01-25T03:12:56.579Z,28.70
2023-01-25T03:15:23.477Z,22.80
2023-01-25T03:17:50.502Z,24.75
2023-01-25T03:20:18.695Z,23.00
2023-01-25T03:22:45.812Z,34.08
2023-01-25T03:25:13.299Z,32.92
2023-01-25T03:27:49.677Z,22.55
2023-01-25T03:30:16.585Z,23.73
2023-01-25T03:32:43.536Z,26.80
2023-01-25T03:35:15.340Z,22.20
2023-01-25T03:37:43.400Z,20.92
2023-01-25T03:40:11.038Z,20.63
2023-01-25T03:42:41.696Z,23.63
2023-01-25T03:45:09.498Z,24.08
2023-01-25T03:47:36.502Z,27.02
2023-01-25T03:50:04.348Z,21.48
2023-01-25T03:52:38.473Z,25.58
2023-01-25T03:55:08.749Z,27.20
2023-01-25T03:57:39.734Z,21.40
2023-01-25T04:00:07.515Z,22.25
2023-01-25T04:02:42.308Z,23.40
2023-01-25T04:05:12.974Z,27.58
2023-01-25T04:07:40.068Z,22.65
2023-01-25T04:10:09.707Z,24.48
2023-01-25T04:12:40.571Z,23.63
2023-01-25T04:15:08.639Z,29.30
2023-01-25T04:17:35.911Z,26.02
2023-01-25T04:20:13.457Z,24.02
2023-01-25T04:22:40.999Z,23.80
2023-01-25T04:25:10.273Z,23.92
2023-01-25T04:27:41.919Z,22.55
2023-01-25T04:30:13.218Z,24.35
2023-01-25T04:32:41.178Z,23.10
2023-01-25T04:35:20.409Z,22.80
2023-01-25T04:37:58.479Z,21.30
2023-01-25T04:40:30.307Z,22.20
2023-01-25T04:42:57.192Z,20.60
2023-01-25T04:45:25.565Z,22.52
2023-01-25T04:48:03.892Z,21.85
2023-01-25T04:50:32.439Z,22.48
2023-01-25T04:53:00.075Z,22.45
2023-01-25T04:55:31.009Z,20.52
2023-01-25T04:57:59.034Z,21.75
2023-01-25T05:00:26.554Z,21.30
2023-01-25T05:02:53.577Z,22.60
2023-01-25T05:05:20.771Z,21.10
2023-01-25T05:07:48.411Z,19.77
2023-01-25T05:10:15.848Z,20.65
2023-01-25T05:13:00.414Z,21.27
2023-01-25T05:15:27.496Z,22.15
2023-01-25T05:17:54.330Z,21.50
2023-01-25T05:20:21.372Z,21.27
2023-01-25T05:22:48.236Z,21.20
2023-01-25T05:25:34.377Z,21.08
2023-01-25T05:28:07.608Z,22.20
2023-01-25T05:30:53.895Z,22.67
2023-01-25T05:33:24.751Z,20.67
2023-01-25T05:35:51.714Z,22.50
2023-01-25T05:38:18.630Z,20.98
2023-01-25T05:40:45.617Z,22.13
2023-01-25T05:43:12.593Z,22.55
2023-01-25T05:45:40.342Z,22.17
2023-01-25T05:48:08.055Z,21.25
2023-01-25T05:50:35.555Z,21.63
2023-01-25T05:53:09.353Z,22.25
2023-01-25T05:55:37.564Z,22.45
2023-01-25T05:58:10.301Z,21.88
2023-01-25T06:00:39.103Z,22.27
2023-01-25T06:03:06.365Z,21.08
2023-01-25T06:05:37.350Z,20.15
2023-01-25T06:08:04.644Z,20.27
2023-01-25T06:10:40.948Z,22.02
2023-01-25T06:13:08.364Z,21.35
2023-01-25T06:15:35.267Z,22.00
2023-01-25T06:18:21.311Z,24.58
2023-01-25T06:21:08.932Z,20.55
2023-01-25T06:23:36.758Z,19.83
2023-01-25T06:26:07.003Z,21.92
2023-01-25T06:28:35.318Z,20.35
2023-01-25T06:31:07.329Z,20.65
2023-01-25T06:33:34.895Z,18.92
2023-01-25T06:36:07.988Z,19.30
2023-01-25T06:38:34.873Z,19.17
2023-01-25T06:41:03.759Z,18.63
2023-01-25T06:43:32.141Z,19.60
2023-01-25T06:46:11.934Z,19.77
2023-01-25T06:48:39.500Z,20.30
2023-01-25T06:51:09.793Z,18.17
2023-01-25T06:53:39.868Z,18.23
2023-01-25T06:56:12.661Z,19.08
2023-01-25T06:58:40.695Z,19.98
2023-01-25T07:01:16.495Z,19.08
2023-01-25T07:03:43.423Z,18.52
2023-01-25T07:06:11.343Z,19.67
2023-01-25T07:08:39.806Z,20.75
2023-01-25T07:11:12.151Z,19.83
2023-01-25T07:13:45.666Z,20.95
2023-01-25T07:16:18.267Z,18.38
2023-01-25T07:18:45.461Z,18.30
2023-01-25T07:21:17.959Z,18.83
2023-01-25T07:23:44.989Z,19.42
2023-01-25T07:26:18.519Z,19.20
2023-01-25T07:28:46.696Z,19.15
2023-01-25T07:31:15.220Z,18.63
2023-01-25T07:33:42.830Z,18.17
2023-01-25T07:36:11.804Z,17.25
2023-01-25T07:38:38.780Z,17.58
2023-01-25T07:41:05.794Z,16.33
2023-01-25T07:43:33.060Z,18.65
2023-01-25T07:46:08.224Z,16.88
2023-01-25T07:48:35.240Z,16.30
2023-01-25T07:51:19.334Z,17.50
2023-01-25T07:53:46.204Z,17.35
2023-01-25T07:56:13.288Z,16.88
2023-01-25T07:58:40.608Z,16.30
2023-01-25T08:01:17.602Z,15.70
2023-01-25T08:03:45.823Z,16.20
2023-01-25T08:06:13.826Z,15.40
2023-01-25T08:08:45.037Z,16.30
2023-01-25T08:11:18.749Z,15.13
2023-01-25T08:13:46.351Z,15.85
2023-01-25T08:16:18.193Z,15.77
2023-01-25T08:18:48.714Z,16.30
2023-01-25T08:21:16.025Z,14.88
2023-01-25T08:23:42.844Z,15.32
2023-01-25T08:26:11.506Z,14.77
2023-01-25T08:28:38.431Z,13.85
2023-01-25T08:31:27.098Z,14.82
2023-01-25T08:33:54.832Z,13.45
2023-01-25T08:36:24.217Z,12.80
2023-01-25T08:38:55.307Z,13.77
2023-01-25T08:41:22.618Z,14.68
2023-01-25T08:43:51.258Z,13.88
2023-01-25T08:46:18.862Z,14.23
2023-01-25T08:48:45.997Z,13.88
2023-01-25T08:51:15.223Z,13.43
2023-01-25T08:53:42.720Z,14.68
2023-01-25T08:56:12.112Z,14.35
2023-01-25T08:58:42.533Z,14.38
2023-01-25T09:01:11.731Z,13.07
2023-01-25T09:03:41.614Z,12.35
2023-01-25T09:06:09.238Z,12.27
2023-01-25T09:08:37.934Z,11.68
2023-01-25T09:11:20.989Z,12.57
2023-01-25T09:13:48.993Z,12.30
2023-01-25T09:16:27.449Z,10.90
2023-01-25T09:18:55.655Z,11.77
2023-01-25T09:21:22.911Z,14.05
2023-01-25T09:24:05.629Z,13.45
2023-01-25T09:26:34.433Z,12.32
2023-01-25T09:29:01.431Z,13.13
2023-01-25T09:31:29.428Z,14.25
2023-01-25T09:34:09.600Z,12.73
2023-01-25T09:36:37.035Z,12.85
2023-01-25T09:39:04.581Z,12.32
2023-01-25T09:42:00.752Z,13.02
2023-01-25T09:45:09.330Z,12.68
2023-01-25T09:47:44.997Z,12.70
2023-01-25T09:50:39.647Z,12.43
2023-01-25T09:53:19.211Z,12.75
2023-01-25T09:55:54.388Z,12.95
2023-01-25T09:58:28.077Z,11.88
2023-01-25T10:01:09.657Z,12.80
2023-01-25T10:04:19.536Z,11.95
2023-01-25T10:07:00.075Z,13.27
2023-01-25T10:09:51.852Z,11.88
2023-01-25T10:12:26.643Z,12.45
2023-01-25T10:14:54.520Z,12.93
2023-01-25T10:17:32.172Z,13.90
2023-01-25T10:20:10.095Z,12.75
2023-01-25T10:22:46.319Z,11.25
2023-01-25T10:25:39.573Z,12.82
2023-01-25T10:28:13.305Z,13.35
2023-01-25T10:31:05.537Z,14.90
2023-01-25T10:33:38.714Z,14.25
2023-01-25T10:36:07.194Z,13.85
2023-01-25T10:38:40.474Z,13.80
2023-01-25T10:41:28.827Z,13.60
2023-01-25T10:44:14.390Z,13.38
2023-01-25T10:46:44.249Z,13.85
2023-01-25T10:49:32.068Z,13.13
2023-01-25T10:52:21.228Z,13.75
2023-01-25T10:54:51.974Z,13.18
2023-01-25T10:57:22.494Z,12.18
2023-01-25T10:59:52.679Z,11.63
2023-01-25T11:02:44.971Z,12.63
2023-01-25T11:05:37.962Z,13.70
2023-01-25T11:08:24.832Z,14.00
2023-01-25T11:10:53.471Z,15.65
2023-01-25T11:13:24.567Z,15.77
2023-01-25T11:16:04.821Z,15.68
2023-01-25T11:18:35.004Z,16.27
2023-01-25T11:21:23.356Z,17.02
2023-01-25T11:24:18.190Z,15.75
2023-01-25T11:26:47.140Z,16.23
2023-01-25T11:29:19.710Z,16.65
2023-01-25T11:31:49.985Z,15.52
2023-01-25T11:34:25.157Z,15.10
2023-01-25T11:37:05.552Z,16.52
2023-01-25T11:39:50.134Z,16.25
2023-01-25T11:42:20.221Z,16.02
2023-01-25T11:44:53.049Z,15.50
2023-01-25T11:47:57.633Z,14.43
2023-01-25T11:50:39.070Z,14.93
2023-01-25T11:53:08.936Z,14.95
2023-01-25T11:55:47.017Z,15.30
2023-01-25T11:58:39.960Z,16.77
2023-01-25T12:01:21.994Z,15.43
2023-01-25T12:04:21.361Z,14.75
2023-01-25T12:07:09.591Z,15.15
2023-01-25T12:10:18.485Z,14.50
2023-01-25T12:12:57.937Z,14.50
2023-01-25T12:15:35.420Z,13.98
2023-01-25T12:18:40.775Z,15.82
2023-01-25T12:21:38.611Z,14.82
2023-01-25T12:24:16.407Z,14.57
2023-01-25T12:27:11.545Z,14.40
2023-01-25T12:29:45.011Z,12.60
2023-01-25T12:32:38.499Z,13.40
2023-01-25T12:35:28.216Z,13.07
2023-01-25T12:38:02.750Z,15.15
2023-01-25T12:40:42.063Z,14.68
2023-01-25T12:43:33.151Z,13.65
2023-01-25T12:46:01.767Z,12.48
2023-01-25T12:48:41.238Z,12.82
2023-01-25T12:51:09.212Z,11.63
2023-01-25T12:53:47.277Z,12.93
2023-01-25T12:56:26.131Z,12.15
2023-01-25T12:59:03.889Z,11.77
2023-01-25T13:01:54.695Z,11.82
2023-01-25T13:04:49.023Z,12.23
2023-01-25T13:07:17.715Z,12.02
2023-01-25T13:09:56.658Z,12.05
2023-01-25T13:12:24.652Z,12.07
2023-01-25T13:14:51.634Z,11.48
2023-01-25T13:17:27.788Z,12.43
2023-01-25T13:19:54.882Z,13.30
2023-01-25T13:22:43.363Z,11.18
2023-01-25T13:25:20.052Z,11.73
2023-01-25T13:27:47.283Z,12.13
2023-01-25T13:30:30.823Z,12.85
2023-01-25T13:33:06.866Z,12.57
2023-01-25T13:35:42.463Z,12.77
2023-01-25T13:38:09.248Z,11.43
2023-01-25T13:40:38.220Z,12.13
2023-01-25T13:43:20.371Z,12.90
2023-01-25T13:45:50.986Z,11.35
2023-01-25T13:48:22.022Z,11.02
2023-01-25T13:50:52.486Z,10.27
2023-01-25T13:53:22.580Z,11.80
2023-01-25T13:55:55.314Z,11.27
2023-01-25T13:58:26.514Z,11.98
2023-01-25T14:00:57.973Z,11.63
2023-01-25T14:03:30.801Z,10.57
2023-01-25T14:06:02.746Z,11.13
2023-01-25T14:08:31.210Z,11.20
2023-01-25T14:10:58.602Z,11.02
2023-01-25T14:13:25.616Z,11.35
2023-01-25T14:16:01.366Z,11.95
2023-01-25T14:18:33.320Z,11.55
2023-01-25T14:21:16.586Z,11.73
2023-01-25T14:23:44.474Z,11.68
2023-01-25T14:26:22.217Z,12.70
2023-01-25T14:29:01.046Z,13.48
2023-01-25T14:31:33.029Z,13.20
2023-01-25T14:33:59.938Z,13.35
2023-01-25T14:36:29.796Z,12.80
2023-01-25T14:38:57.360Z,12.48
2023-01-25T14:41:34.765Z,13.63
2023-01-25T14:44:10.941Z,14.88
2023-01-25T14:46:39.240Z,13.23
2023-01-25T14:49:13.195Z,13.60
2023-01-25T14:51:41.914Z,16.10
2023-01-25T14:54:21.287Z,15.07
2023-01-25T14:57:00.698Z,13.38
2023-01-25T14:59:34.377Z,14.10
2023-01-25T15:02:38.989Z,13.23
2023-01-25T15:05:20.248Z,12.63
2023-01-25T15:07:56.477Z,13.70
2023-01-25T15:10:27.205Z,13.98
2023-01-25T15:13:14.833Z,12.73
2023-01-25T15:16:02.124Z,13.75
2023-01-25T15:18:48.153Z,14.60
2023-01-25T15:21:27.001Z,13.68
2023-01-25T15:23:55.762Z,14.13
2023-01-25T15:26:23.566Z,14.82
2023-01-25T15:28:52.764Z,13.18
2023-01-25T15:31:29.923Z,15.38
2023-01-25T15:33:57.592Z,15.32
2023-01-25T15:36:25.099Z,18.80
2023-01-25T15:38:52.396Z,14.90
2023-01-25T15:41:19.903Z,15.45
2023-01-25T15:43:47.352Z,16.73
2023-01-25T15:46:22.626Z,16.02
2023-01-25T15:48:51.084Z,15.43
2023-01-25T15:51:21.768Z,15.23
2023-01-25T15:53:48.652Z,13.98
2023-01-25T15:56:27.389Z,16.05
2023-01-25T15:59:00.819Z,15.90
2023-01-25T16:01:29.814Z,13.40
2023-01-25T16:03:58.580Z,13.38
2023-01-25T16:06:51.218Z,15.05
2023-01-25T16:09:23.850Z,15.20
2023-01-25T16:11:54.126Z,15.43
2023-01-25T16:14:23.593Z,14.50
2023-01-25T16:16:52.288Z,16.77
2023-01-25T16:19:22.106Z,16.05
2023-01-25T16:21:50.039Z,13.98
2023-01-25T16:24:17.883Z,14.52
2023-01-25T16:26:56.164Z,13.63
2023-01-25T16:29:23.332Z,15.95
2023-01-25T16:31:51.670Z,16.40
2023-01-25T16:34:20.230Z,15.50
2023-01-25T16:36:50.426Z,14.95
2023-01-25T16:39:20.406Z,20.38
2023-01-25T16:41:48.520Z,22.20
2023-01-25T16:44:16.524Z,20.38
2023-01-25T16:46:44.024Z,17.35
2023-01-25T16:49:23.118Z,16.65
2023-01-25T16:51:50.721Z,17.15
2023-01-25T16:54:20.248Z,18.45
2023-01-25T16:56:48.510Z,16.33
2023-01-25T16:59:15.807Z,17.88
2023-01-25T17:01:43.185Z,20.25
2023-01-25T17:04:10.641Z,19.38
2023-01-25T17:06:40.801Z,14.35
2023-01-25T17:09:21.895Z,17.13
2023-01-25T17:11:49.815Z,17.15
2023-01-25T17:14:19.008Z,17.65
2023-01-25T17:16:48.198Z,17.65
2023-01-25T17:19:16.940Z,16.17
2023-01-25T17:21:44.718Z,16.45
2023-01-25T17:24:14.593Z,14.27
2023-01-25T17:26:42.104Z,14.90
2023-01-25T17:29:10.305Z,15.38
2023-01-25T17:31:38.029Z,20.48
2023-01-25T17:34:06.880Z,24.20
2023-01-25T17:36:34.226Z,18.25
2023-01-25T17:39:07.748Z,17.40
2023-01-25T17:41:34.617Z,16.70
2023-01-25T17:44:01.822Z,16.67
2023-01-25T17:46:34.989Z,18.15
2023-01-25T17:49:07.111Z,20.90
2023-01-25T17:51:36.163Z,17.33
2023-01-25T17:54:05.110Z,17.83
2023-01-25T17:56:32.483Z,17.80
2023-01-25T17:59:01.468Z,17.30
2023-01-25T18:01:32.113Z,19.15
2023-01-25T18:04:00.541Z,16.10
2023-01-25T18:06:30.637Z,17.02
2023-01-25T18:09:00.167Z,16.45
2023-01-25T18:11:30.991Z,15.88
2023-01-25T18:14:04.318Z,15.68
2023-01-25T18:16:32.437Z,16.33
2023-01-25T18:19:01.094Z,16.08
2023-01-25T18:21:31.660Z,15.93
2023-01-25T18:24:01.721Z,16.60
2023-01-25T18:26:36.948Z,16.50
2023-01-25T18:29:09.888Z,15.55
2023-01-25T18:31:37.232Z,16.77
2023-01-25T18:34:05.102Z,18.80
2023-01-25T18:36:31.982Z,15.85
2023-01-25T18:39:00.285Z,16.13
2023-01-25T18:41:27.229Z,16.63
2023-01-25T18:43:54.006Z,16.80
2023-01-25T18:46:20.885Z,17.17
2023-01-25T18:48:47.785Z,20.60
2023-01-25T18:51:17.758Z,19.08
2023-01-25T18:53:47.447Z,19.50
2023-01-25T18:56:17.626Z,18.15
2023-01-25T18:58:45.316Z,18.20
2023-01-25T19:01:15.082Z,16.70
2023-01-25T19:03:43.643Z,21.23
2023-01-25T19:06:11.363Z,17.80
2023-01-25T19:08:43.082Z,19.20
2023-01-25T19:11:15.035Z,21.02
2023-01-25T19:13:43.611Z,17.52
2023-01-25T19:16:21.664Z,18.95
2023-01-25T19:18:52.008Z,17.90
2023-01-25T19:21:27.257Z,18.17
2023-01-25T19:23:55.307Z,17.13
2023-01-25T19:26:24.538Z,17.75
2023-01-25T19:28:52.114Z,17.27
2023-01-25T19:31:22.386Z,21.20
2023-01-25T19:33:55.263Z,19.50
2023-01-25T19:36:22.649Z,18.33
2023-01-25T19:38:52.639Z,19.00
2023-01-25T19:41:22.503Z,16.58
2023-01-25T19:43:56.971Z,17.27
2023-01-25T19:46:27.491Z,16.33
2023-01-25T19:48:54.825Z,16.70
2023-01-25T19:51:22.853Z,16.48
2023-01-25T19:53:59.900Z,18.33
2023-01-25T19:56:29.300Z,17.70
2023-01-25T19:58:56.330Z,18.10
2023-01-25T20:01:27.672Z,17.05
2023-01-25T20:04:02.151Z,16.88
2023-01-25T20:06:29.337Z,23.42
2023-01-25T20:08:56.928Z,33.13
2023-01-25T20:11:26.904Z,20.92
2023-01-25T20:13:57.787Z,17.52
2023-01-25T20:16:25.795Z,19.58
2023-01-25T20:18:53.083Z,17.50
2023-01-25T20:21:21.855Z,17.50
2023-01-25T20:23:50.913Z,17.90
2023-01-25T20:26:20.838Z,17.02
2023-01-25T20:28:53.531Z,16.17
2023-01-25T20:31:38.429Z,16.98
2023-01-25T20:34:09.969Z,17.05
2023-01-25T20:36:36.808Z,15.07
2023-01-25T20:39:05.013Z,15.82
2023-01-25T20:41:31.807Z,15.02
2023-01-25T20:44:02.054Z,15.27
2023-01-25T20:46:29.747Z,16.75
2023-01-25T20:48:56.605Z,16.58
2023-01-25T20:51:24.018Z,18.45
2023-01-25T20:53:51.339Z,15.88
2023-01-25T20:56:19.601Z,16.67
2023-01-25T20:58:50.609Z,17.33
2023-01-25T21:01:24.571Z,18.35
2023-01-25T21:03:54.387Z,17.80
2023-01-25T21:06:21.201Z,18.42
2023-01-25T21:08:47.992Z,19.13
2023-01-25T21:11:15.264Z,20.63
2023-01-25T21:13:42.519Z,19.58
2023-01-25T21:16:18.012Z,19.77
2023-01-25T21:18:47.058Z,18.67
2023-01-25T21:21:22.960Z,18.92
2023-01-25T21:23:50.813Z,20.27
2023-01-25T21:26:20.707Z,21.08
2023-01-25T21:28:47.868Z,20.38
2023-01-25T21:31:17.805Z,20.48
2023-01-25T21:33:45.113Z,20.25
2023-01-25T21:36:16.497Z,19.42
2023-01-25T21:38:48.179Z,19.13
2023-01-25T21:41:20.795Z,20.15
2023-01-25T21:44:10.687Z,19.95
2023-01-25T21:46:38.239Z,28.42
2023-01-25T21:49:26.728Z,24.45
2023-01-25T21:51:56.045Z,24.60
2023-01-25T21:54:26.238Z,31.80
2023-01-25T21:56:55.232Z,28.13
2023-01-25T21:59:23.429Z,24.23
2023-01-25T22:01:52.119Z,20.80
2023-01-25T22:04:20.472Z,19.55
2023-01-25T22:06:50.658Z,22.30
2023-01-25T22:09:18.263Z,16.45
2023-01-25T22:11:45.987Z,17.45
2023-01-25T22:14:19.186Z,17.83
2023-01-25T22:16:46.779Z,19.02
2023-01-25T22:19:13.647Z,18.45
2023-01-25T22:21:40.521Z,20.73
2023-01-25T22:24:08.151Z,19.77
2023-01-25T22:27:06.431Z,20.42
2023-01-25T22:29:34.218Z,20.65
2023-01-25T22:32:02.185Z,22.25
2023-01-25T22:34:29.201Z,22.58
2023-01-25T22:36:56.114Z,21.02
2023-01-25T22:39:23.092Z,20.88
2023-01-25T22:41:49.872Z,20.30
2023-01-25T22:44:16.728Z,18.95
2023-01-25T22:46:43.714Z,25.70
2023-01-25T22:49:10.648Z,21.20
2023-01-25T22:51:37.471Z,19.30
2023-01-25T22:54:05.169Z,18.80
2023-01-25T22:56:33.553Z,24.60
2023-01-25T22:59:01.231Z,19.63
2023-01-25T23:01:30.918Z,19.63
2023-01-25T23:03:59.003Z,18.55
2023-01-25T23:06:31.667Z,18.55
2023-01-25T23:09:00.778Z,18.33
2023-01-25T23:11:32.316Z,17.90
2023-01-25T23:14:18.560Z,17.90
2023-01-25T23:16:46.319Z,18.42
2023-01-25T23:19:13.573Z,16.75
2023-01-25T23:21:41.424Z,16.42
2023-01-25T23:24:09.410Z,17.33
2023-01-25T23:26:39.619Z,16.42
2023-01-25T23:29:14.659Z,17.38
2023-01-25T23:31:42.069Z,16.35
2023-01-25T23:34:11.249Z,17.35
2023-01-25T23:36:44.096Z,17.38
2023-01-25T23:39:14.216Z,17.63
2023-01-25T23:41:41.004Z,19.73
2023-01-25T23:44:11.781Z,19.45
2023-01-25T23:46:38.847Z,19.90
2023-01-25T23:49:05.739Z,20.77
2023-01-25T23:51:32.530Z,21.40
2023-01-25T23:53:59.341Z,21.45
2023-01-25T23:56:26.142Z,19.70
2023-01-25T23:58:53.495Z,19.58
